Saturday, January 20, 2018, 8:24 AM EST
Back to Local

KPTW, Pottstown Limerick Airport

Location: Royersford, PA, United States Lat: 40.233
Local Time: 8:24 AM EST (13:24 GMT) Lon: -75.55
Time Zone: US/Eastern Elev: 291 ft

Show me the last for .
Show Decoded

2018-01-20 07:54 METAR KPTW 201254Z AUTO 21008KT 10SM CLR 04/M05 A2993 RMK AO2 SLP134 T00441050 =
2018-01-20 06:54 METAR KPTW 201154Z AUTO 22004KT 10SM CLR 02/M06 A2993 RMK AO2 SLP134 T00221056
                 10033 21050 55005 =
2018-01-20 05:54 METAR KPTW 201054Z AUTO 23005KT 10SM CLR 03/M06 A2992 RMK AO2 SLP132 T00281056 =
2018-01-20 04:54 METAR KPTW 200954Z AUTO 22005KT 10SM CLR 00/M07 A2993 RMK AO2 SLP134 T00001067 =
2018-01-20 03:54 METAR KPTW 200854Z AUTO 00000KT 10SM CLR M03/M08 A2994 RMK AO2 SLP138 T10331083
                 58007 =
2018-01-20 01:54 METAR KPTW 200654Z AUTO 21003KT 9SM CLR 00/M08 A2996 RMK AO2 SLP146 T00001078 =
2018-01-20 00:54 METAR KPTW 200554Z AUTO 20004KT 10SM CLR 01/M08 A2996 RMK AO2 SLP145 T00061078
                 10022 21044 58014 =
2018-01-19 23:54 METAR KPTW 200454Z AUTO 00000KT 9SM CLR M03/M08 A2998 RMK AO2 SLP152 T10331083
                 400441117 =
2018-01-19 22:54 METAR KPTW 200354Z AUTO 00000KT 9SM CLR M03/M08 A3000 RMK AO2 SLP159 T10331078 =
2018-01-19 21:54 METAR KPTW 200254Z AUTO 00000KT 9SM CLR M01/M08 A3000 RMK AO2 SLP160 T10061078
                 58002 =
2018-01-19 20:54 METAR KPTW 200154Z AUTO 00000KT 9SM CLR M02/M08 A3001 RMK AO2 SLP163 T10221078 =
2018-01-19 19:54 METAR KPTW 200054Z AUTO VRB03KT 10SM CLR 02/M08 A3001 RMK AO2 SLP163 T00221078 =
2018-01-19 18:54 METAR KPTW 192354Z AUTO 00000KT 9SM CLR M01/M07 A3001 RMK AO2 SLP164 T10111072
                 10044 21011 58002 =
2018-01-19 17:54 METAR KPTW 192254Z AUTO 23006KT 10SM CLR 03/M07 A3001 RMK AO2 SLP165 T00331072 =
2018-01-19 16:54 METAR KPTW 192154Z AUTO 24003KT 9SM CLR 03/M07 A3001 RMK AO2 SLP164 T00331072 =
2018-01-19 15:54 METAR KPTW 192054Z AUTO 26008KT 9SM CLR 04/M08 A3002 RMK AO2 SLP165 T00391078
                 55009 =
2018-01-19 14:54 METAR KPTW 191954Z AUTO 25007KT 8SM CLR 04/M08 A3001 RMK AO2 SLP164 T00391078 =
2018-01-19 13:54 METAR KPTW 191854Z AUTO VRB03KT 8SM CLR 03/M08 A3003 RMK AO2 SLP171 T00281083 =
2018-01-19 12:54 METAR KPTW 191754Z AUTO 25007KT 8SM CLR 02/M09 A3004 RMK AO2 SLP174 T00221089
                 10022 21111 58023 =
2018-01-19 11:54 METAR KPTW 191654Z AUTO 27006KT 8SM CLR 02/M08 A3007 RMK AO2 SLP184 T00171083 =
2018-01-19 10:54 METAR KPTW 191554Z AUTO 00000KT 6SM HZ CLR M01/M08 A3010 RMK AO2 SLP195
                 T10111083 =
2018-01-19 09:54 METAR KPTW 191454Z AUTO 00000KT 5SM HZ CLR M04/M09 A3011 RMK AO2 SLP199
                 T10441089 53007 =
2018-01-19 08:54 METAR KPTW 191354Z AUTO 00000KT 4SM HZ CLR M07/M10 A3010 RMK AO2 SLP196
                 T10721100 =

Support USWX by starting your Amazon purchase here.